createdAt,value
2022-10-05T00:00:24.800Z,5.61
2022-10-05T00:04:28.567Z,5.59
2022-10-05T00:08:17.753Z,5.61
2022-10-05T00:12:09.479Z,5.64
2022-10-05T00:15:58.380Z,5.67
2022-10-05T00:19:47.297Z,5.73
2022-10-05T00:23:36.153Z,5.80
2022-10-05T00:27:25.406Z,5.87
2022-10-05T00:31:14.360Z,5.89
2022-10-05T00:35:03.239Z,5.93
2022-10-05T00:38:36.421Z,5.98
2022-10-05T00:42:25.231Z,6.04
2022-10-05T00:46:13.874Z,6.08
2022-10-05T00:50:05.769Z,6.13
2022-10-05T00:53:54.672Z,6.20
2022-10-05T00:57:38.638Z,6.21
2022-10-05T01:01:09.634Z,6.22
2022-10-05T01:05:13.101Z,6.15
2022-10-05T01:09:13.440Z,6.05
2022-10-05T01:13:11.070Z,6.02
2022-10-05T01:17:01.584Z,6.05
2022-10-05T01:21:05.261Z,6.03
2022-10-05T01:24:55.412Z,5.93
2022-10-05T01:28:56.073Z,5.83
2022-10-05T01:32:24.603Z,5.72
2022-10-05T01:36:40.762Z,5.64
2022-10-05T01:40:35.605Z,5.54
2022-10-05T01:44:33.581Z,5.49
2022-10-05T01:48:43.332Z,5.44
2022-10-05T01:52:53.090Z,5.40
2022-10-05T01:56:50.608Z,5.36
2022-10-05T02:05:22.908Z,5.27
2022-10-05T02:09:20.485Z,5.23
2022-10-05T02:13:09.378Z,5.19
2022-10-05T02:17:01.273Z,5.16
2022-10-05T02:20:50.273Z,5.13
2022-10-05T02:24:39.106Z,5.10
2022-10-05T02:28:34.071Z,5.09
2022-10-05T02:32:35.006Z,5.07
2022-10-05T02:36:23.983Z,5.06
2022-10-05T02:40:15.340Z,5.06
2022-10-05T02:44:24.850Z,5.05
2022-10-05T02:48:31.443Z,5.05
2022-10-05T02:52:35.301Z,5.04
2022-10-05T02:56:24.178Z,5.03
2022-10-05T03:00:15.868Z,5.01
2022-10-05T03:04:10.741Z,5.04
2022-10-05T03:08:11.340Z,5.08
2022-10-05T03:12:06.360Z,5.13
2022-10-05T03:15:58.138Z,5.19
2022-10-05T03:19:58.847Z,5.27
2022-10-05T03:23:47.701Z,5.36
2022-10-05T03:27:54.909Z,5.40
2022-10-05T03:31:49.840Z,5.40
2022-10-05T03:35:41.535Z,5.38
2022-10-05T03:39:51.420Z,5.38
2022-10-05T03:43:55.452Z,5.38
2022-10-05T03:47:50.234Z,5.29
2022-10-05T03:51:51.043Z,5.25
2022-10-05T03:55:19.516Z,5.16
2022-10-05T03:59:08.420Z,5.05
2022-10-05T04:03:15.419Z,5.00
2022-10-05T04:07:07.049Z,5.01
2022-10-05T04:11:04.769Z,5.05
2022-10-05T04:14:58.914Z,5.11
2022-10-05T04:18:47.917Z,5.17
2022-10-05T04:22:38.105Z,5.19
2022-10-05T04:26:26.928Z,5.14
2022-10-05T04:30:24.913Z,5.17
2022-10-05T04:34:13.806Z,5.22
2022-10-05T04:37:47.043Z,5.24
2022-10-05T04:41:35.278Z,5.24
2022-10-05T04:45:42.555Z,5.17
2022-10-05T04:49:40.109Z,5.11
2022-10-05T04:53:29.382Z,5.12
2022-10-05T04:57:18.216Z,5.13
2022-10-05T05:01:11.290Z,5.16
2022-10-05T05:05:09.046Z,5.16
2022-10-05T05:08:59.474Z,5.25
2022-10-05T05:13:09.505Z,5.35
2022-10-05T05:17:16.449Z,5.42
2022-10-05T05:21:20.432Z,5.49
2022-10-05T05:25:24.017Z,5.55
2022-10-05T05:29:19.855Z,5.59
2022-10-05T05:33:12.702Z,5.60
2022-10-05T05:36:23.523Z,5.59
2022-10-05T05:39:39.984Z,5.59
2022-10-05T05:42:26.187Z,5.62
2022-10-05T05:45:00.276Z,5.67
2022-10-05T05:47:39.078Z,5.69
2022-10-05T05:50:32.372Z,5.70
2022-10-05T05:53:10.533Z,5.74
2022-10-05T05:55:50.826Z,5.80
2022-10-05T05:58:53.731Z,5.86
2022-10-05T06:01:44.319Z,5.91
2022-10-05T06:04:33.051Z,5.94
2022-10-05T06:07:03.579Z,5.99
2022-10-05T06:09:47.276Z,6.04
2022-10-05T06:12:34.795Z,6.09
2022-10-05T06:15:22.119Z,6.15
2022-10-05T06:17:54.864Z,6.25
2022-10-05T06:20:33.711Z,6.32
2022-10-05T06:23:07.638Z,6.40
2022-10-05T06:26:19.295Z,6.53
2022-10-05T06:29:11.651Z,6.70
2022-10-05T06:31:57.910Z,6.85
2022-10-05T06:34:58.644Z,6.99
2022-10-05T06:37:30.157Z,7.12
2022-10-05T06:40:33.411Z,7.23
2022-10-05T06:43:32.764Z,7.41
2022-10-05T06:46:23.971Z,7.60
2022-10-05T06:49:53.912Z,7.76
2022-10-05T06:53:33.417Z,7.98
2022-10-05T06:56:34.902Z,8.18
2022-10-05T06:59:07.268Z,8.34
2022-10-05T07:02:27.424Z,8.51
2022-10-05T07:05:37.833Z,8.69
2022-10-05T07:09:03.805Z,8.89
2022-10-05T07:12:04.838Z,9.10
2022-10-05T07:15:07.249Z,9.24
2022-10-05T07:18:36.252Z,9.30
2022-10-05T07:21:43.325Z,9.45
2022-10-05T07:25:16.149Z,9.59
2022-10-05T07:28:55.491Z,9.75
2022-10-05T07:32:49.732Z,9.95
2022-10-05T07:36:38.188Z,10.16
2022-10-05T07:40:47.697Z,10.26
2022-10-05T07:44:20.237Z,10.32
2022-10-05T07:48:20.755Z,10.45
2022-10-05T07:51:19.175Z,10.66
2022-10-05T07:54:06.312Z,10.83
2022-10-05T07:56:58.870Z,10.95
2022-10-05T07:59:38.993Z,11.09
2022-10-05T08:02:55.771Z,11.19
2022-10-05T08:05:47.397Z,11.27
2022-10-05T08:08:42.349Z,11.34
2022-10-05T08:11:54.733Z,11.42
2022-10-05T08:14:54.399Z,11.47
2022-10-05T08:18:09.499Z,11.63
2022-10-05T08:20:50.238Z,11.81
2022-10-05T08:23:40.811Z,11.89
2022-10-05T08:26:27.697Z,11.95
2022-10-05T08:29:14.778Z,12.04
2022-10-05T08:31:56.928Z,12.19
2022-10-05T08:34:50.798Z,12.37
2022-10-05T08:37:21.453Z,12.48
2022-10-05T08:40:14.640Z,12.59
2022-10-05T08:42:52.011Z,12.70
2022-10-05T08:45:36.745Z,12.79
2022-10-05T08:48:21.587Z,12.89
2022-10-05T08:51:33.376Z,13.00
2022-10-05T08:54:27.807Z,13.08
2022-10-05T08:56:57.345Z,13.11
2022-10-05T08:59:46.341Z,13.10
2022-10-05T09:02:26.212Z,13.08
2022-10-05T09:05:10.316Z,13.17
2022-10-05T09:08:00.900Z,13.28
2022-10-05T09:10:48.164Z,13.34
2022-10-05T09:13:38.265Z,13.36
2022-10-05T09:16:13.973Z,13.35
2022-10-05T09:19:03.559Z,13.39
2022-10-05T09:22:03.020Z,13.41
2022-10-05T09:24:58.493Z,13.34
2022-10-05T09:28:16.000Z,13.32
2022-10-05T09:31:04.117Z,13.37
2022-10-05T09:33:39.341Z,13.41
2022-10-05T09:36:33.598Z,13.45
2022-10-05T09:39:35.697Z,13.54
2022-10-05T09:42:39.813Z,13.62
2022-10-05T09:45:37.391Z,13.70
2022-10-05T09:48:26.050Z,13.77
2022-10-05T09:51:07.373Z,13.91
2022-10-05T09:53:54.785Z,14.03
2022-10-05T09:56:58.800Z,14.15
2022-10-05T10:03:19.669Z,14.34
2022-10-05T10:06:22.972Z,14.37
2022-10-05T10:08:55.174Z,14.33
2022-10-05T10:11:49.184Z,14.36
2022-10-05T10:14:34.925Z,14.47
2022-10-05T10:17:31.796Z,14.53
2022-10-05T10:20:00.182Z,14.58
2022-10-05T10:22:35.491Z,14.66
2022-10-05T10:25:22.257Z,14.77
2022-10-05T10:28:25.957Z,14.93
2022-10-05T10:31:26.612Z,15.09
2022-10-05T10:34:19.233Z,15.13
2022-10-05T10:37:35.763Z,15.22
2022-10-05T10:40:20.353Z,15.30
2022-10-05T10:43:14.512Z,15.33
2022-10-05T10:45:54.791Z,15.42
2022-10-05T10:48:29.810Z,15.35
2022-10-05T10:51:20.433Z,15.31
2022-10-05T10:54:17.730Z,15.39
2022-10-05T10:57:01.748Z,15.61
2022-10-05T10:59:45.947Z,15.84
2022-10-05T11:02:39.023Z,15.99
2022-10-05T11:05:33.761Z,16.10
2022-10-05T11:08:41.136Z,16.20
2022-10-05T11:11:29.077Z,16.25
2022-10-05T11:14:28.669Z,16.32
2022-10-05T11:17:15.820Z,16.30
2022-10-05T11:20:28.649Z,16.29
2022-10-05T11:23:34.229Z,16.31
2022-10-05T11:26:55.369Z,16.23
2022-10-05T11:30:40.223Z,16.36
2022-10-05T11:33:55.155Z,16.54
2022-10-05T11:36:50.529Z,16.53
2022-10-05T11:39:53.514Z,16.58
2022-10-05T11:43:05.266Z,16.61
2022-10-05T11:47:02.863Z,16.64
2022-10-05T11:50:44.993Z,16.54
2022-10-05T11:54:19.605Z,16.62
2022-10-05T11:57:38.278Z,16.70
2022-10-05T12:01:31.274Z,16.77
2022-10-05T12:05:25.949Z,16.84
2022-10-05T12:09:15.200Z,16.85
2022-10-05T12:12:12.596Z,16.86
2022-10-05T12:15:37.410Z,16.89
2022-10-05T12:19:24.820Z,16.95
2022-10-05T12:22:43.186Z,17.13
2022-10-05T12:26:11.781Z,17.27
2022-10-05T12:29:51.225Z,17.33
2022-10-05T12:33:51.996Z,17.41
2022-10-05T12:37:38.198Z,17.57
2022-10-05T12:40:38.622Z,17.63
2022-10-05T12:44:31.808Z,17.65
2022-10-05T12:48:00.091Z,17.58
2022-10-05T12:51:40.462Z,17.48
2022-10-05T12:55:14.893Z,17.36
2022-10-05T12:58:31.566Z,17.38
2022-10-05T13:02:18.168Z,17.49
2022-10-05T13:06:07.308Z,17.52
2022-10-05T13:10:22.954Z,17.49
2022-10-05T13:14:32.334Z,17.44
2022-10-05T13:18:14.466Z,17.37
2022-10-05T13:22:10.844Z,17.35
2022-10-05T13:25:06.037Z,17.30
2022-10-05T13:27:58.499Z,17.23
2022-10-05T13:31:26.754Z,17.17
2022-10-05T13:35:31.548Z,17.10
2022-10-05T13:39:28.437Z,16.97
2022-10-05T13:42:57.020Z,16.86
2022-10-05T13:46:33.042Z,16.69
2022-10-05T13:50:16.481Z,16.65
2022-10-05T13:53:26.973Z,16.64
2022-10-05T13:56:57.874Z,16.66
2022-10-05T14:00:04.224Z,16.74
2022-10-05T14:02:54.634Z,16.78
2022-10-05T14:06:07.082Z,16.82
2022-10-05T14:08:48.137Z,16.86
2022-10-05T14:11:53.909Z,16.88
2022-10-05T14:15:11.019Z,16.79
2022-10-05T14:18:21.624Z,16.66
2022-10-05T14:21:12.111Z,16.59
2022-10-05T14:23:40.243Z,16.53
2022-10-05T14:26:34.370Z,16.47
2022-10-05T14:29:20.124Z,16.42
2022-10-05T14:32:14.448Z,16.32
2022-10-05T14:35:08.217Z,16.20
2022-10-05T14:38:06.451Z,16.05
2022-10-05T14:41:29.575Z,15.90
2022-10-05T14:44:09.870Z,15.76
2022-10-05T14:46:56.121Z,15.63
2022-10-05T14:49:37.490Z,15.50
2022-10-05T14:52:29.233Z,15.38
2022-10-05T14:55:18.062Z,15.28
2022-10-05T14:58:10.123Z,15.16
2022-10-05T15:01:03.414Z,15.04
2022-10-05T15:03:50.243Z,14.92
2022-10-05T15:06:37.598Z,14.82
2022-10-05T15:09:38.182Z,14.73
2022-10-05T15:12:09.460Z,14.64
2022-10-05T15:14:45.387Z,14.58
2022-10-05T15:17:27.689Z,14.53
2022-10-05T15:20:10.658Z,14.48
2022-10-05T15:22:46.527Z,14.41
2022-10-05T15:25:37.693Z,14.37
2022-10-05T15:28:11.501Z,14.34
2022-10-05T15:30:51.581Z,14.30
2022-10-05T15:33:28.959Z,14.23
2022-10-05T15:36:16.215Z,14.16
2022-10-05T15:39:04.196Z,14.09
2022-10-05T15:41:56.277Z,14.05
2022-10-05T15:44:30.327Z,14.01
2022-10-05T15:47:05.702Z,13.96
2022-10-05T15:49:39.876Z,13.88
2022-10-05T15:52:52.407Z,13.78
2022-10-05T15:55:26.020Z,13.66
2022-10-05T15:58:38.798Z,13.55
2022-10-05T16:01:12.070Z,13.39
2022-10-05T16:03:49.310Z,13.28
2022-10-05T16:06:41.860Z,13.20
2022-10-05T16:09:49.861Z,13.11
2022-10-05T16:12:42.819Z,13.05
2022-10-05T16:15:16.898Z,13.00
2022-10-05T16:18:05.784Z,12.94
2022-10-05T16:21:00.136Z,12.88
2022-10-05T16:23:28.335Z,12.80
2022-10-05T16:26:09.236Z,12.70
2022-10-05T16:28:58.921Z,12.62
2022-10-05T16:31:26.729Z,12.52
2022-10-05T16:34:17.318Z,12.43
2022-10-05T16:37:25.704Z,12.36
2022-10-05T16:40:13.073Z,12.30
2022-10-05T16:43:06.226Z,12.25
2022-10-05T16:45:56.549Z,12.19
2022-10-05T16:48:28.940Z,12.13
2022-10-05T16:51:42.901Z,12.08
2022-10-05T16:54:32.801Z,11.99
2022-10-05T16:57:27.557Z,11.91
2022-10-05T17:00:38.305Z,11.83
2022-10-05T17:03:27.491Z,11.76
2022-10-05T17:06:27.453Z,11.69
2022-10-05T17:09:36.376Z,11.63
2022-10-05T17:12:19.000Z,11.58
2022-10-05T17:15:22.682Z,11.54
2022-10-05T17:18:50.048Z,11.51
2022-10-05T17:22:00.525Z,11.50
2022-10-05T17:24:48.765Z,11.49
2022-10-05T17:27:51.055Z,11.44
2022-10-05T17:30:39.060Z,11.33
2022-10-05T17:33:37.763Z,11.25
2022-10-05T17:36:40.031Z,11.20
2022-10-05T17:39:47.060Z,11.16
2022-10-05T17:42:30.204Z,11.11
2022-10-05T17:44:59.764Z,11.03
2022-10-05T17:47:55.848Z,10.99
2022-10-05T17:51:03.951Z,10.95
2022-10-05T17:54:02.940Z,10.89
2022-10-05T17:56:47.913Z,10.88
2022-10-05T17:59:59.511Z,10.85
2022-10-05T18:02:36.949Z,10.84
2022-10-05T18:05:05.139Z,10.84
2022-10-05T18:07:34.890Z,10.83
2022-10-05T18:10:11.909Z,10.83
2022-10-05T18:12:39.817Z,10.83
2022-10-05T18:15:07.897Z,10.81
2022-10-05T18:17:51.532Z,10.80
2022-10-05T18:20:28.748Z,10.82
2022-10-05T18:23:02.732Z,10.84
2022-10-05T18:25:39.478Z,10.84
2022-10-05T18:28:39.985Z,10.83
2022-10-05T18:31:26.668Z,10.79
2022-10-05T18:33:57.731Z,10.79
2022-10-05T18:36:47.099Z,10.81
2022-10-05T18:39:32.688Z,10.83
2022-10-05T18:42:42.351Z,10.84
2022-10-05T18:45:35.519Z,10.83
2022-10-05T18:48:06.873Z,10.78
2022-10-05T18:50:49.242Z,10.71
2022-10-05T18:53:26.136Z,10.63
2022-10-05T18:56:02.388Z,10.57
2022-10-05T18:58:33.384Z,10.52
2022-10-05T19:01:23.173Z,10.48
2022-10-05T19:03:51.332Z,10.38
2022-10-05T19:06:29.894Z,10.29
2022-10-05T19:09:09.221Z,10.25
2022-10-05T19:11:48.132Z,10.20
2022-10-05T19:14:28.322Z,10.14
2022-10-05T19:17:15.887Z,10.04
2022-10-05T19:20:03.508Z,9.94
2022-10-05T19:22:42.276Z,9.89
2022-10-05T19:25:36.924Z,9.86
2022-10-05T19:28:37.195Z,9.81
2022-10-05T19:31:23.420Z,9.77
2022-10-05T19:34:09.090Z,9.74
2022-10-05T19:36:46.136Z,9.69
2022-10-05T19:39:36.284Z,9.63
2022-10-05T19:42:17.190Z,9.57
2022-10-05T19:45:23.648Z,9.52
2022-10-05T19:48:05.931Z,9.47
2022-10-05T19:50:38.832Z,9.42
2022-10-05T19:53:21.416Z,9.36
2022-10-05T19:56:30.175Z,9.29
2022-10-05T19:59:17.201Z,9.22
2022-10-05T20:02:04.423Z,9.16
2022-10-05T20:04:41.565Z,9.08
2022-10-05T20:07:25.353Z,9.02
2022-10-05T20:10:01.517Z,8.98
2022-10-05T20:13:32.105Z,8.96
2022-10-05T20:16:59.406Z,8.94
2022-10-05T20:19:51.047Z,8.96
2022-10-05T20:22:32.905Z,9.01
2022-10-05T20:25:08.950Z,9.07
2022-10-05T20:27:40.263Z,9.13
2022-10-05T20:30:21.444Z,9.18
2022-10-05T20:32:52.199Z,9.25
2022-10-05T20:35:26.852Z,9.30
2022-10-05T20:38:00.222Z,9.33
2022-10-05T20:40:35.825Z,9.35
2022-10-05T20:43:05.818Z,9.38
2022-10-05T20:45:34.089Z,9.42
2022-10-05T20:48:04.443Z,9.46
2022-10-05T20:50:34.906Z,9.45
2022-10-05T20:53:11.616Z,9.41
2022-10-05T20:55:40.208Z,9.39
2022-10-05T20:58:11.231Z,9.38
2022-10-05T21:01:03.250Z,9.39
2022-10-05T21:03:34.632Z,9.33
2022-10-05T21:06:02.719Z,9.27
2022-10-05T21:08:33.144Z,9.19
2022-10-05T21:11:10.534Z,9.12
2022-10-05T21:13:44.688Z,9.04
2022-10-05T21:16:23.083Z,9.00
2022-10-05T21:19:29.645Z,8.96
2022-10-05T21:22:23.089Z,8.92
2022-10-05T21:24:51.438Z,8.87
2022-10-05T21:27:19.653Z,8.84
2022-10-05T21:29:47.629Z,8.81
2022-10-05T21:32:15.655Z,8.77
2022-10-05T21:34:43.700Z,8.74
2022-10-05T21:37:11.656Z,8.69
2022-10-05T21:39:39.506Z,8.65
2022-10-05T21:42:07.471Z,8.60
2022-10-05T21:44:35.469Z,8.56
2022-10-05T21:47:04.369Z,8.54
2022-10-05T21:49:34.322Z,8.50
2022-10-05T21:52:06.160Z,8.46
2022-10-05T21:54:52.529Z,8.44
2022-10-05T21:57:28.710Z,8.43
2022-10-05T22:00:32.572Z,8.41
2022-10-05T22:04:00.916Z,8.41
2022-10-05T22:07:14.765Z,8.44
2022-10-05T22:10:04.621Z,8.47
2022-10-05T22:13:02.011Z,8.49
2022-10-05T22:16:35.812Z,8.53
2022-10-05T22:19:43.984Z,8.56
2022-10-05T22:23:12.743Z,8.60
2022-10-05T22:25:50.160Z,8.64
2022-10-05T22:28:18.956Z,8.67
2022-10-05T22:31:03.141Z,8.69
2022-10-05T22:33:44.272Z,8.69
2022-10-05T22:36:21.630Z,8.67
2022-10-05T22:39:25.840Z,8.64
2022-10-05T22:42:06.983Z,8.67
2022-10-05T22:44:36.365Z,8.72
2022-10-05T22:47:52.443Z,8.75
2022-10-05T22:51:08.605Z,8.76
2022-10-05T22:53:38.114Z,8.81
2022-10-05T22:56:34.032Z,8.84
2022-10-05T22:59:07.506Z,8.83
2022-10-05T23:02:10.719Z,8.84
2022-10-05T23:04:45.163Z,8.86
2022-10-05T23:07:13.129Z,8.84
2022-10-05T23:09:41.909Z,8.84
2022-10-05T23:12:10.176Z,8.81
2022-10-05T23:14:38.065Z,8.77
2022-10-05T23:17:08.000Z,8.71
2022-10-05T23:19:35.901Z,8.64
2022-10-05T23:22:26.454Z,8.59
2022-10-05T23:24:55.179Z,8.52
2022-10-05T23:27:43.685Z,8.46
2022-10-05T23:30:12.874Z,8.38
2022-10-05T23:32:44.218Z,8.31
2022-10-05T23:35:13.311Z,8.22
2022-10-05T23:37:44.464Z,8.13
2022-10-05T23:40:14.317Z,8.07
2022-10-05T23:42:42.926Z,8.02
2022-10-05T23:45:12.367Z,7.97
2022-10-05T23:47:40.961Z,7.92
2022-10-05T23:50:10.288Z,7.87
2022-10-05T23:52:54.311Z,7.82
2022-10-05T23:55:42.674Z,7.76
2022-10-05T23:58:12.537Z,7.70
